Time;durP1;ratioP1;P1;durP2;ratioP2;P2;SDS_P1;SDS_P2;PMS_P1;PMS_P2;Temp;Humidity;BMP_temperature;BMP_pressure;BME280_temperature;BME280_humidity;BME280_pressure;Samples;Min_cycle;Max_cycle;Signal;HPM_P1;HPM_P2
2023/02/07 00:01:26;;;;;;;27.20;15.82;;;-2.60;99.90;;;;;;5067536;28;20068;-67
2023/02/07 00:03:55;;;;;;;29.40;16.55;;;-2.60;99.90;;;;;;5073946;28;20495;-67
2023/02/07 00:06:28;;;;;;;29.23;15.68;;;-2.70;99.90;;;;;;5063233;28;20483;-68
2023/02/07 00:08:58;;;;;;;32.45;16.88;;;-2.70;99.90;;;;;;5073909;28;20505;-67
2023/02/07 00:11:26;;;;;;;30.65;16.23;;;-2.70;99.90;;;;;;5089211;28;20514;-66
2023/02/07 00:13:55;;;;;;;28.40;15.80;;;-2.60;99.90;;;;;;5073884;28;20045;-67
2023/02/07 00:16:24;;;;;;;26.88;15.77;;;-2.60;99.90;;;;;;5061152;28;20037;-67
2023/02/07 00:18:53;;;;;;;29.27;16.13;;;-2.70;99.90;;;;;;5060220;28;20099;-67
2023/02/07 00:21:22;;;;;;;30.02;17.05;;;-2.70;99.90;;;;;;5073282;28;20444;-68
2023/02/07 00:23:51;;;;;;;31.10;17.42;;;-2.70;99.90;;;;;;5073940;28;20045;-67
2023/02/07 00:26:20;;;;;;;31.27;17.33;;;-2.70;99.90;;;;;;5071959;28;20182;-67
2023/02/07 00:28:49;;;;;;;34.22;16.30;;;-2.70;99.90;;;;;;5072797;28;20079;-67
2023/02/07 00:31:22;;;;;;;34.63;16.77;;;-2.70;99.90;;;;;;5088817;28;20044;-67
2023/02/07 00:33:51;;;;;;;31.98;17.05;;;-2.70;99.90;;;;;;5072016;28;20494;-66
2023/02/07 00:36:22;;;;;;;31.27;17.67;;;-2.80;99.90;;;;;;5069960;28;20201;-66
2023/02/07 00:38:50;;;;;;;35.28;18.35;;;-2.80;99.90;;;;;;5074080;28;20048;-67
2023/02/07 00:41:18;;;;;;;31.38;18.23;;;-2.80;99.90;;;;;;5089153;28;20036;-66
2023/02/07 00:43:47;;;;;;;37.30;19.85;;;-2.90;99.90;;;;;;5073552;28;20453;-66
2023/02/07 00:46:15;;;;;;;36.30;18.88;;;-2.90;99.90;;;;;;5073192;28;20036;-68
2023/02/07 00:48:42;;;;;;;29.48;16.88;;;-2.90;99.90;;;;;;5071876;28;20120;-67
2023/02/07 00:51:12;;;;;;;29.83;17.80;;;-2.90;99.90;;;;;;5072342;28;20052;-66
2023/02/07 00:53:40;;;;;;;29.73;16.85;;;-3.00;99.90;;;;;;5071922;28;20059;-66
2023/02/07 00:56:07;;;;;;;31.95;18.40;;;-3.10;99.90;;;;;;5072418;28;20124;-67
2023/02/07 00:58:35;;;;;;;29.60;17.45;;;-3.10;99.90;;;;;;5072094;28;20052;-68
2023/02/07 01:01:04;;;;;;;35.47;18.17;;;-3.10;99.90;;;;;;5072871;28;20060;-67
2023/02/07 01:03:32;;;;;;;29.67;16.75;;;-3.20;99.90;;;;;;5072863;28;20044;-66
2023/02/07 01:05:59;;;;;;;32.55;17.58;;;-3.20;99.90;;;;;;5064009;28;20099;-67
2023/02/07 01:08:27;;;;;;;31.00;17.30;;;-3.20;99.90;;;;;;5059168;28;20068;-67
2023/02/07 01:10:54;;;;;;;39.15;19.15;;;-3.20;99.90;;;;;;5072853;28;20036;-66
2023/02/07 01:13:21;;;;;;;37.25;18.90;;;-3.30;99.90;;;;;;5080232;28;20403;-68
2023/02/07 01:15:49;;;;;;;36.42;17.63;;;-3.30;99.90;;;;;;5071149;28;20093;-68
2023/02/07 01:18:16;;;;;;;34.25;19.00;;;-3.40;99.90;;;;;;5070819;28;20091;-66
2023/02/07 01:20:44;;;;;;;35.08;19.17;;;-3.40;99.90;;;;;;5047774;28;20057;-67
2023/02/07 01:23:14;;;;;;;31.70;17.58;;;-3.50;99.90;;;;;;5014091;28;20067;-66
2023/02/07 01:25:44;;;;;;;32.95;18.17;;;-3.60;99.90;;;;;;5041750;28;20045;-67
2023/02/07 01:28:13;;;;;;;36.00;18.90;;;-3.60;99.90;;;;;;5050969;28;20563;-68
2023/02/07 01:30:42;;;;;;;36.30;19.23;;;-3.60;99.90;;;;;;5066682;28;20064;-68
2023/02/07 01:33:10;;;;;;;37.75;19.88;;;-3.60;99.90;;;;;;5050516;28;20128;-66
2023/02/07 01:35:37;;;;;;;38.58;20.85;;;-3.60;99.90;;;;;;5051294;28;20037;-67
2023/02/07 01:38:06;;;;;;;36.83;19.42;;;-3.50;99.90;;;;;;5052583;28;20045;-67
2023/02/07 01:40:36;;;;;;;33.17;19.77;;;-3.60;99.90;;;;;;5051316;28;20040;-68
2023/02/07 01:43:05;;;;;;;40.50;20.10;;;-3.50;99.90;;;;;;5050693;28;20408;-67
2023/02/07 01:45:36;;;;;;;32.42;18.73;;;-3.50;99.90;;;;;;5051186;28;20040;-66
2023/02/07 01:48:10;;;;;;;;;;;-3.50;99.90;;;;;;5067703;28;20055;-67
2023/02/07 01:50:42;;;;;;;34.55;18.92;;;-3.50;99.90;;;;;;5050745;28;20011;-67
2023/02/07 01:53:10;;;;;;;;;;;-3.50;99.90;;;;;;5032088;28;20053;-67
2023/02/07 01:55:41;;;;;;;37.80;20.08;;;-3.50;99.90;;;;;;5049326;28;20260;-66
2023/02/07 01:58:09;;;;;;;38.50;19.70;;;-3.50;99.90;;;;;;5032828;28;20500;-66
2023/02/07 02:00:37;;;;;;;34.65;20.10;;;-3.40;99.90;;;;;;5046390;28;20048;-66
2023/02/07 02:03:04;;;;;;;35.72;19.52;;;-3.50;99.90;;;;;;5046584;28;20068;-66
2023/02/07 02:05:34;;;;;;;39.15;20.10;;;-3.50;99.90;;;;;;5045819;28;21134;-66
2023/02/07 02:08:02;;;;;;;41.85;20.55;;;-3.50;99.90;;;;;;5032182;28;20041;-67
2023/02/07 02:11:00;;;;;;;40.55;20.25;;;-3.50;99.90;;;;;;5030924;28;20047;-67
2023/02/07 02:14:02;;;;;;;33.90;20.08;;;-3.50;99.90;;;;;;5042239;28;20064;-66
2023/02/07 02:16:55;;;;;;;42.85;20.42;;;-3.60;99.90;;;;;;5030965;28;20132;-67
2023/02/07 02:19:41;;;;;;;38.28;20.02;;;-3.60;99.90;;;;;;5031554;28;20048;-67
2023/02/07 02:22:27;;;;;;;39.22;20.95;;;-3.70;99.90;;;;;;5045985;28;20065;-66
2023/02/07 02:25:22;;;;;;;39.40;20.30;;;-3.70;99.90;;;;;;5046953;28;20045;-66
2023/02/07 02:28:36;;;;;;;39.30;20.25;;;-3.70;99.90;;;;;;5031853;28;20053;-67
2023/02/07 02:31:09;;;;;;;44.22;21.60;;;-3.80;99.90;;;;;;5029965;28;20056;-66
2023/02/07 02:33:39;;;;;;;38.88;20.35;;;-3.80;99.90;;;;;;5030326;28;20125;-66
2023/02/07 02:36:15;;;;;;;36.05;19.85;;;-3.90;99.90;;;;;;5059809;28;20048;-66
2023/02/07 02:38:59;;;;;;;35.63;20.13;;;-3.90;99.90;;;;;;5030631;28;20046;-66
2023/02/07 02:41:41;;;;;;;36.40;21.55;;;-4.00;99.90;;;;;;5023458;28;20049;-66
2023/02/07 02:44:19;;;;;;;37.33;21.55;;;-4.10;99.90;;;;;;5033228;28;20106;-67
2023/02/07 02:46:47;;;;;;;36.83;20.27;;;-4.10;99.90;;;;;;5040610;28;20063;-66
2023/02/07 02:49:15;;;;;;;41.63;21.98;;;-4.20;99.90;;;;;;5015566;28;20053;-67
2023/02/07 02:51:43;;;;;;;43.17;21.77;;;-4.20;99.90;;;;;;5050290;28;20038;-67
2023/02/07 02:54:34;;;;;;;36.97;20.52;;;-4.30;99.90;;;;;;5030857;28;20038;-67
2023/02/07 02:57:49;;;;;;;36.72;21.45;;;-4.30;99.90;;;;;;5047796;28;20495;-66
2023/02/07 03:00:37;;;;;;;38.42;21.15;;;-4.20;99.90;;;;;;5050180;28;20091;-65
2023/02/07 03:03:16;;;;;;;44.00;22.80;;;-4.30;99.90;;;;;;5050165;28;20045;-66
2023/02/07 03:06:05;;;;;;;45.03;22.63;;;-4.30;99.90;;;;;;5065073;28;20063;-67
2023/02/07 03:08:52;;;;;;;43.00;22.15;;;-4.20;99.90;;;;;;5032365;28;20052;-66
2023/02/07 03:11:22;;;;;;;41.97;23.23;;;-4.30;99.90;;;;;;5038009;28;20052;-66
2023/02/07 03:13:50;;;;;;;46.28;22.05;;;-4.30;99.90;;;;;;5029910;28;20041;-67
2023/02/07 03:16:27;;;;;;;42.22;23.15;;;-4.30;99.90;;;;;;5029501;28;20040;-66
2023/02/07 03:19:00;;;;;;;42.40;22.02;;;-4.30;99.90;;;;;;5030388;28;20152;-66
2023/02/07 03:21:56;;;;;;;44.63;22.58;;;-4.30;99.90;;;;;;5039949;28;20064;-67
2023/02/07 03:24:32;;;;;;;44.78;22.60;;;-4.30;99.90;;;;;;5040921;28;20532;-66
2023/02/07 03:27:06;;;;;;;41.72;22.20;;;-4.30;99.90;;;;;;5053832;28;20041;-66
2023/02/07 03:29:36;;;;;;;42.28;23.40;;;-4.40;99.90;;;;;;5034802;28;20442;-66
2023/02/07 03:32:07;;;;;;;45.42;23.00;;;-4.40;99.90;;;;;;5052607;28;20040;-66
2023/02/07 03:34:59;;;;;;;46.10;24.43;;;-4.40;99.90;;;;;;5053173;28;20468;-66
2023/02/07 03:37:43;;;;;;;44.78;22.98;;;-4.40;99.90;;;;;;5054879;28;20036;-66
2023/02/07 03:40:11;;;;;;;42.22;23.63;;;-4.50;99.90;;;;;;5040400;28;20052;-65
2023/02/07 03:42:48;;;;;;;43.90;23.05;;;-4.50;99.90;;;;;;5053823;28;20500;-67
2023/02/07 03:45:18;;;;;;;44.25;23.48;;;-4.60;99.90;;;;;;5044856;28;20037;-66
2023/02/07 03:47:46;;;;;;;44.50;23.75;;;-4.60;99.90;;;;;;5033558;28;20047;-66
2023/02/07 03:50:14;;;;;;;45.42;23.40;;;-4.60;99.90;;;;;;5038822;28;20034;-66
2023/02/07 03:52:41;;;;;;;48.15;23.45;;;-4.60;99.90;;;;;;5032465;28;20046;-67
2023/02/07 03:55:09;;;;;;;46.15;24.15;;;-4.70;99.90;;;;;;5032934;28;20538;-67
2023/02/07 03:57:36;;;;;;;45.47;23.33;;;-4.70;99.90;;;;;;5041537;28;20065;-67
2023/02/07 04:00:05;;;;;;;44.60;23.30;;;-4.70;99.90;;;;;;5051104;28;20053;-67
2023/02/07 04:02:39;;;;;;;45.83;23.10;;;-4.80;99.90;;;;;;5032653;28;20120;-67
2023/02/07 04:05:06;;;;;;;39.63;22.88;;;-4.80;99.90;;;;;;5032821;28;20598;-65
2023/02/07 04:07:34;;;;;;;43.50;22.88;;;-4.80;99.90;;;;;;5032599;28;20115;-65
2023/02/07 04:10:02;;;;;;;46.10;24.40;;;-4.90;99.90;;;;;;5031680;28;20077;-65
2023/02/07 04:12:31;;;;;;;47.88;24.95;;;-4.90;99.90;;;;;;5033819;28;20049;-67
2023/02/07 04:15:00;;;;;;;45.08;24.85;;;-4.90;99.90;;;;;;5040012;28;20419;-67
2023/02/07 04:17:28;;;;;;;49.70;25.48;;;-4.90;99.90;;;;;;5050469;28;20071;-66
2023/02/07 04:19:57;;;;;;;48.50;26.05;;;-5.00;99.90;;;;;;5047200;28;20041;-66
2023/02/07 04:22:25;;;;;;;54.50;25.05;;;-5.00;99.90;;;;;;5032479;28;20136;-67
2023/02/07 04:24:52;;;;;;;45.47;24.88;;;-4.90;99.90;;;;;;5032680;28;20451;-68
2023/02/07 04:27:19;;;;;;;46.67;25.75;;;-4.90;99.90;;;;;;5033290;28;20046;-65
2023/02/07 04:29:46;;;;;;;48.95;25.88;;;-4.90;99.90;;;;;;5032062;28;20048;-66
2023/02/07 04:32:13;;;;;;;53.13;25.88;;;-4.90;99.90;;;;;;5032384;28;20037;-66
2023/02/07 04:34:41;;;;;;;49.92;25.40;;;-4.90;99.90;;;;;;5038435;28;20037;-66
2023/02/07 04:37:08;;;;;;;52.90;26.35;;;-4.90;99.90;;;;;;5032329;28;20045;-66
2023/02/07 04:39:35;;;;;;;56.83;27.02;;;-4.90;99.90;;;;;;5030945;28;20423;-66
2023/02/07 04:42:03;;;;;;;45.80;24.45;;;-4.90;99.90;;;;;;5031783;28;20063;-66
2023/02/07 04:44:30;;;;;;;50.55;25.38;;;-4.90;99.90;;;;;;5031767;28;20055;-66
2023/02/07 04:46:58;;;;;;;50.90;25.38;;;-4.90;99.90;;;;;;5031444;28;20049;-66
2023/02/07 04:49:25;;;;;;;49.20;24.63;;;-4.90;99.90;;;;;;5039427;28;20059;-66
2023/02/07 04:51:52;;;;;;;56.85;28.02;;;-4.90;99.90;;;;;;5042759;28;20042;-66
2023/02/07 04:54:20;;;;;;;54.15;26.30;;;-4.80;99.90;;;;;;5046821;28;20593;-66
2023/02/07 04:56:47;;;;;;;49.28;26.17;;;-4.70;99.90;;;;;;5031785;28;20451;-66
2023/02/07 04:59:14;;;;;;;54.15;26.67;;;-4.80;99.90;;;;;;5031368;28;20599;-66
2023/02/07 05:01:42;;;;;;;46.38;25.05;;;-4.70;99.90;;;;;;5031303;28;20052;-66
2023/02/07 05:04:09;;;;;;;50.35;26.08;;;-4.70;99.90;;;;;;5031781;28;20042;-66
2023/02/07 05:06:36;;;;;;;50.70;26.42;;;-4.80;99.90;;;;;;5039377;28;20663;-66
2023/02/07 05:09:03;;;;;;;49.10;25.50;;;-4.80;99.90;;;;;;5031180;28;20045;-66
2023/02/07 05:11:31;;;;;;;58.00;27.08;;;-4.90;99.90;;;;;;5030662;28;20037;-67
2023/02/07 05:13:58;;;;;;;55.25;26.90;;;-4.90;99.90;;;;;;5032030;28;20477;-65
2023/02/07 05:16:25;;;;;;;51.85;26.60;;;-4.90;99.90;;;;;;5045774;28;20040;-66
2023/02/07 05:18:53;;;;;;;52.03;27.00;;;-4.90;99.90;;;;;;5031285;28;20044;-66
2023/02/07 05:21:20;;;;;;;48.78;26.40;;;-4.90;99.90;;;;;;5029896;28;20100;-66
2023/02/07 05:23:47;;;;;;;55.58;27.35;;;-4.90;99.90;;;;;;5031057;28;20049;-65
2023/02/07 05:26:16;;;;;;;55.80;27.38;;;-5.00;99.90;;;;;;5030948;28;20507;-65
2023/02/07 05:28:43;;;;;;;54.90;27.27;;;-5.00;99.90;;;;;;5030623;28;20049;-67
2023/02/07 05:31:11;;;;;;;48.90;25.05;;;-5.10;99.90;;;;;;5043040;28;20552;-65
2023/02/07 05:33:38;;;;;;;49.05;25.50;;;-5.10;99.90;;;;;;5035693;28;20037;-65
2023/02/07 05:36:06;;;;;;;55.00;28.38;;;-5.10;99.90;;;;;;5039927;28;20057;-65
2023/02/07 05:38:33;;;;;;;55.30;28.35;;;-5.10;99.90;;;;;;5040809;28;20096;-65
2023/02/07 05:41:01;;;;;;;53.25;27.55;;;-5.20;99.90;;;;;;5063959;28;20577;-65
2023/02/07 05:43:28;;;;;;;52.90;26.77;;;-5.20;99.90;;;;;;5045333;28;20052;-66
2023/02/07 05:45:55;;;;;;;51.63;26.88;;;-5.10;99.90;;;;;;5049243;28;20139;-65
2023/02/07 05:48:22;;;;;;;51.00;27.98;;;-5.20;99.90;;;;;;5037282;28;20364;-65
2023/02/07 05:50:50;;;;;;;50.33;25.80;;;-5.10;99.90;;;;;;5049945;28;20068;-66
2023/02/07 05:53:17;;;;;;;50.72;25.33;;;-5.10;99.90;;;;;;5038651;28;20029;-67
2023/02/07 05:55:44;;;;;;;50.78;27.40;;;-5.20;99.90;;;;;;5034579;28;20065;-66
2023/02/07 05:58:11;;;;;;;52.05;26.27;;;-5.20;99.90;;;;;;5040163;28;20042;-66
2023/02/07 06:00:39;;;;;;;48.97;26.30;;;-5.20;99.90;;;;;;5036308;28;20041;-66
2023/02/07 06:03:06;;;;;;;48.05;25.35;;;-5.20;99.90;;;;;;5044896;28;20045;-66
2023/02/07 06:05:34;;;;;;;49.28;26.50;;;-5.20;99.90;;;;;;5053529;28;20087;-66
2023/02/07 06:08:01;;;;;;;52.95;27.02;;;-5.10;99.90;;;;;;5058970;28;20041;-67
2023/02/07 06:10:28;;;;;;;51.88;26.23;;;-5.10;99.90;;;;;;5085547;28;20136;-67
2023/02/07 06:12:55;;;;;;;54.70;26.63;;;-5.10;99.90;;;;;;5060175;28;20048;-67
2023/02/07 06:15:23;;;;;;;50.17;27.95;;;-5.10;99.90;;;;;;5071240;28;20491;-67
2023/02/07 06:17:50;;;;;;;52.17;27.60;;;-5.20;99.90;;;;;;5069988;28;20444;-68
2023/02/07 06:20:18;;;;;;;50.40;26.48;;;-5.10;99.90;;;;;;5086056;28;20098;-67
2023/02/07 06:22:45;;;;;;;51.65;25.67;;;-5.20;99.90;;;;;;5063643;28;20056;-67
2023/02/07 06:25:12;;;;;;;48.72;26.13;;;-5.30;99.90;;;;;;5055148;28;20037;-67
2023/02/07 06:27:40;;;;;;;55.17;26.23;;;-5.30;99.90;;;;;;5051194;28;20049;-67
2023/02/07 06:30:09;;;;;;;49.45;24.30;;;-5.40;99.90;;;;;;5069052;28;20043;-67
2023/02/07 06:32:37;;;;;;;56.25;26.35;;;-5.40;99.90;;;;;;5058898;28;20491;-68
2023/02/07 06:35:05;;;;;;;51.80;24.85;;;-5.40;99.90;;;;;;5060756;28;20068;-68
2023/02/07 06:37:35;;;;;;;50.13;25.63;;;-5.40;99.90;;;;;;5059095;28;20042;-66
2023/02/07 06:40:03;;;;;;;45.60;25.67;;;-5.40;99.90;;;;;;5064424;28;20047;-66
2023/02/07 06:42:30;;;;;;;51.30;27.40;;;-5.40;99.90;;;;;;5054571;28;20041;-67
2023/02/07 06:44:57;;;;;;;53.65;25.90;;;-5.30;99.90;;;;;;5056933;28;20037;-66
2023/02/07 06:47:25;;;;;;;51.22;25.45;;;-5.30;99.90;;;;;;5063827;28;20542;-67
2023/02/07 06:49:52;;;;;;;47.13;26.35;;;-5.30;99.90;;;;;;5060067;28;20404;-66
2023/02/07 06:52:19;;;;;;;55.92;26.52;;;-5.20;99.90;;;;;;5058121;28;20041;-67
2023/02/07 06:54:47;;;;;;;54.72;27.02;;;-5.20;99.90;;;;;;5047312;28;20498;-66
2023/02/07 06:57:14;;;;;;;48.80;25.42;;;-5.20;99.90;;;;;;5062722;28;20499;-68
2023/02/07 06:59:41;;;;;;;50.45;25.25;;;-5.20;99.90;;;;;;5069510;28;20107;-67
2023/02/07 07:02:11;;;;;;;51.22;25.90;;;-5.20;99.90;;;;;;5069328;28;20191;-67
2023/02/07 07:04:39;;;;;;;49.40;26.25;;;-5.10;99.90;;;;;;5069507;28;20041;-67
2023/02/07 07:07:06;;;;;;;49.28;25.60;;;-5.10;99.90;;;;;;5068994;28;20072;-67
2023/02/07 07:09:33;;;;;;;48.30;26.33;;;-5.10;99.90;;;;;;5054609;28;20041;-66
2023/02/07 07:12:01;;;;;;;45.97;24.27;;;-5.00;99.90;;;;;;5052834;28;20069;-67
2023/02/07 07:14:28;;;;;;;44.80;23.92;;;-4.90;99.90;;;;;;5052717;28;20067;-67
2023/02/07 07:16:55;;;;;;;44.08;24.73;;;-4.90;99.90;;;;;;5045375;28;20044;-68
2023/02/07 07:19:23;;;;;;;46.15;23.30;;;-4.80;99.90;;;;;;5069760;28;20140;-66
2023/02/07 07:21:55;;;;;;;47.38;24.70;;;-4.80;99.90;;;;;;5065913;28;20523;-66
2023/02/07 07:24:24;;;;;;;45.30;24.45;;;-4.70;99.90;;;;;;5050744;28;20565;-66
2023/02/07 07:26:52;;;;;;;45.13;23.05;;;-4.70;99.90;;;;;;5041262;28;20051;-66
2023/02/07 07:29:19;;;;;;;46.25;24.02;;;-4.60;99.90;;;;;;5045575;28;20040;-66
2023/02/07 07:31:46;;;;;;;47.80;25.98;;;-4.60;99.90;;;;;;5043708;28;20084;-65
2023/02/07 07:34:14;;;;;;;46.35;23.80;;;-4.60;99.90;;;;;;5047897;28;20056;-66
2023/02/07 07:36:41;;;;;;;47.53;24.88;;;-4.50;99.90;;;;;;5066413;28;20044;-65
2023/02/07 07:39:09;;;;;;;39.33;22.92;;;-4.50;99.90;;;;;;5068392;28;20040;-66
2023/02/07 07:41:36;;;;;;;47.28;24.52;;;-4.40;99.90;;;;;;5063114;28;20063;-66
2023/02/07 07:44:04;;;;;;;46.38;24.05;;;-4.30;99.90;;;;;;5059020;28;20058;-65
2023/02/07 07:46:31;;;;;;;46.60;23.75;;;-4.30;99.90;;;;;;5064230;28;20870;-65
2023/02/07 07:48:59;;;;;;;43.72;23.33;;;-4.20;99.90;;;;;;5033452;28;20052;-65
2023/02/07 07:51:26;;;;;;;42.05;23.67;;;-4.10;99.90;;;;;;5049666;28;20049;-66
2023/02/07 07:53:53;;;;;;;45.85;24.45;;;-4.10;99.90;;;;;;5048368;28;20541;-64
2023/02/07 07:56:20;;;;;;;44.00;22.23;;;-4.00;99.90;;;;;;5042193;28;20076;-65
2023/02/07 07:58:48;;;;;;;41.55;23.30;;;-4.00;99.90;;;;;;5044278;28;20432;-65
2023/02/07 08:01:16;;;;;;;41.72;23.23;;;-3.90;99.90;;;;;;5031655;28;20518;-66
2023/02/07 08:03:43;;;;;;;49.03;23.88;;;-4.00;99.90;;;;;;5040031;28;20484;-65
2023/02/07 08:06:10;;;;;;;45.90;23.15;;;-3.80;99.90;;;;;;5052387;28;20484;-66
2023/02/07 08:08:38;;;;;;;46.03;23.10;;;-3.80;99.90;;;;;;5041082;28;20416;-66
2023/02/07 08:11:08;;;;;;;40.72;21.35;;;-3.70;99.90;;;;;;5032932;28;20068;-66
2023/02/07 08:13:36;;;;;;;39.10;21.55;;;-3.70;99.90;;;;;;5032875;28;20057;-66
2023/02/07 08:16:07;;;;;;;42.22;22.52;;;-3.60;99.90;;;;;;5045486;28;20044;-66
2023/02/07 08:18:34;;;;;;;46.00;21.50;;;-3.50;99.90;;;;;;5047370;28;20040;-67
2023/02/07 08:21:02;;;;;;;36.22;20.58;;;-3.50;99.90;;;;;;5034885;28;20519;-66
2023/02/07 08:23:29;;;;;;;42.78;21.00;;;-3.40;99.90;;;;;;5030147;28;20572;-67
2023/02/07 08:25:56;;;;;;;39.40;22.02;;;-3.30;99.90;;;;;;5038405;28;20053;-67
2023/02/07 08:28:25;;;;;;;37.00;20.92;;;-3.30;99.90;;;;;;5030756;28;20065;-67
2023/02/07 08:30:52;;;;;;;39.33;21.13;;;-3.20;99.90;;;;;;5047712;28;20047;-67
2023/02/07 08:33:19;;;;;;;40.97;20.90;;;-3.10;99.90;;;;;;5050759;28;20041;-67
2023/02/07 08:35:49;;;;;;;38.28;20.52;;;-3.00;99.90;;;;;;5051050;28;20060;-67
2023/02/07 08:38:16;;;;;;;38.63;20.50;;;-2.90;99.90;;;;;;5067671;28;20041;-67
2023/02/07 08:40:43;;;;;;;38.53;20.52;;;-2.80;99.90;;;;;;5037490;28;20144;-66
2023/02/07 08:43:11;;;;;;;40.38;20.83;;;-2.80;99.90;;;;;;5031325;28;20042;-66
2023/02/07 08:45:40;;;;;;;42.80;23.50;;;-2.80;99.90;;;;;;5043692;28;20052;-68
2023/02/07 08:48:08;;;;;;;45.00;22.55;;;-2.70;99.90;;;;;;5052441;28;20051;-68
2023/02/07 08:50:35;;;;;;;38.50;20.10;;;-2.70;99.90;;;;;;5040719;28;20038;-66
2023/02/07 08:53:03;;;;;;;39.30;22.48;;;-2.60;99.90;;;;;;5048691;28;20035;-66
2023/02/07 08:55:30;;;;;;;39.25;20.25;;;-2.50;99.90;;;;;;5042311;28;20042;-67
2023/02/07 08:57:57;;;;;;;37.05;21.52;;;-2.40;99.90;;;;;;5032416;28;20067;-67
2023/02/07 09:00:25;;;;;;;38.83;20.95;;;-2.30;99.90;;;;;;5031502;28;20457;-66
2023/02/07 09:02:52;;;;;;;36.13;20.48;;;-2.20;99.90;;;;;;5032162;28;20061;-68
2023/02/07 09:05:19;;;;;;;38.22;21.15;;;-2.20;99.90;;;;;;5037484;28;20052;-69
2023/02/07 09:07:46;;;;;;;35.88;20.15;;;-2.00;99.90;;;;;;5052105;28;20044;-66
2023/02/07 09:10:14;;;;;;;35.40;20.65;;;-1.90;99.90;;;;;;5046187;28;20041;-68
2023/02/07 09:12:41;;;;;;;38.97;19.90;;;-1.80;99.90;;;;;;5032773;28;20096;-66
2023/02/07 09:15:09;;;;;;;35.95;19.45;;;-1.70;99.90;;;;;;5029800;28;20334;-66
2023/02/07 09:17:36;;;;;;;37.50;20.33;;;-1.60;99.90;;;;;;5031765;28;20112;-67
2023/02/07 09:20:04;;;;;;;34.45;19.30;;;-1.50;99.90;;;;;;5047614;28;20516;-66
2023/02/07 09:23:16;;;;;;;40.58;19.50;;;-1.30;99.90;;;;;;5032401;28;20041;-67
2023/02/07 09:25:18;;;;;;;34.42;20.05;;;-1.30;99.90;;;;;;5031580;28;20038;-68
2023/02/07 09:27:45;;;;;;;37.50;19.77;;;-1.20;99.90;;;;;;5029279;28;20057;-66
2023/02/07 09:30:13;;;;;;;36.30;20.40;;;-1.10;99.90;;;;;;5031330;28;20068;-66
2023/02/07 09:32:40;;;;;;;41.25;20.02;;;-1.00;99.90;;;;;;5047746;28;20472;-66
2023/02/07 09:35:08;;;;;;;37.72;20.00;;;-1.00;99.90;;;;;;5030217;28;20475;-66
2023/02/07 09:37:44;;;;;;;37.78;19.33;;;-0.90;99.90;;;;;;5031796;28;20041;-67
2023/02/07 09:40:18;;;;;;;39.75;20.15;;;-0.80;99.90;;;;;;5029816;28;20072;-66
2023/02/07 09:43:12;;;;;;;34.10;19.90;;;-0.70;99.90;;;;;;5030880;28;20046;-67
2023/02/07 09:45:43;;;;;;;38.05;18.52;;;-0.60;99.90;;;;;;5031691;28;20049;-67
2023/02/07 09:48:18;;;;;;;35.00;18.80;;;-0.60;99.90;;;;;;5030954;28;20037;-68
2023/02/07 09:50:55;;;;;;;30.73;18.23;;;-0.50;99.90;;;;;;5049164;28;20383;-68
2023/02/07 09:53:29;;;;;;;33.42;18.90;;;-0.40;99.90;;;;;;5058866;28;20040;-67
2023/02/07 09:56:01;;;;;;;31.50;18.33;;;-0.30;99.90;;;;;;5046060;28;20041;-67
2023/02/07 09:58:28;;;;;;;32.65;17.92;;;-0.20;99.90;;;;;;5030343;28;20384;-67
2023/02/07 10:01:03;;;;;;;30.77;17.58;;;-0.20;99.90;;;;;;5031119;28;20041;-69
2023/02/07 10:03:35;;;;;;;32.78;18.35;;;-0.10;99.90;;;;;;5030510;28;20053;-67
2023/02/07 10:06:09;;;;;;;34.53;18.52;;;-0.10;99.90;;;;;;5030837;28;20365;-67
2023/02/07 10:08:48;;;;;;;28.42;17.90;;;-0.10;99.90;;;;;;5030429;28;20432;-67
2023/02/07 10:12:03;;;;;;;28.83;16.38;;;0.10;99.90;;;;;;5030005;28;20045;-66
2023/02/07 10:14:58;;;;;;;34.78;18.75;;;0.30;99.90;;;;;;5026019;28;20056;-68
2023/02/07 10:17:28;;;;;;;37.50;18.65;;;0.40;99.90;;;;;;5052330;28;20037;-66
2023/02/07 10:20:00;;;;;;;29.33;17.33;;;0.60;99.90;;;;;;5049825;28;20614;-67
2023/02/07 10:22:52;;;;;;;37.35;19.00;;;0.70;99.90;;;;;;5029512;28;20135;-67
2023/02/07 10:26:02;;;;;;;41.30;19.20;;;0.80;99.90;;;;;;5029258;28;20064;-67
2023/02/07 10:28:38;;;;;;;26.15;16.77;;;1.00;99.90;;;;;;5021568;28;20049;-67
2023/02/07 10:31:12;;;;;;;31.70;17.15;;;1.20;99.90;;;;;;5030119;28;20376;-68
2023/02/07 10:33:46;;;;;;;28.20;16.10;;;1.20;99.90;;;;;;5030584;28;20072;-68
2023/02/07 10:36:14;;;;;;;32.58;17.02;;;1.20;99.90;;;;;;5031109;28;20037;-67
2023/02/07 10:39:11;;;;;;;27.88;15.25;;;1.40;99.90;;;;;;5028666;28;20103;-67
2023/02/07 10:41:41;;;;;;;30.80;15.90;;;1.50;99.90;;;;;;5028997;28;20045;-67
2023/02/07 10:44:16;;;;;;;29.85;15.90;;;1.70;99.90;;;;;;5028833;28;20107;-67
2023/02/07 10:46:49;;;;;;;26.90;14.63;;;1.80;99.90;;;;;;5036403;28;20532;-67
2023/02/07 10:49:21;;;;;;;38.80;20.50;;;1.90;99.90;;;;;;5036199;28;20384;-67
2023/02/07 10:51:57;;;;;;;25.90;14.73;;;2.10;99.90;;;;;;5047115;28;20110;-67
2023/02/07 10:54:25;;;;;;;24.90;14.60;;;2.30;99.90;;;;;;5029645;28;20156;-66
2023/02/07 10:56:58;;;;;;;26.58;15.65;;;2.50;99.90;;;;;;5029367;28;20073;-66
2023/02/07 10:59:45;;;;;;;24.85;14.85;;;2.60;99.90;;;;;;5030634;28;20423;-66
2023/02/07 11:02:29;;;;;;;26.58;15.02;;;2.70;99.90;;;;;;5029274;28;20034;-66
2023/02/07 11:04:59;;;;;;;29.67;15.18;;;3.00;99.90;;;;;;5028194;28;20551;-66
2023/02/07 11:07:27;;;;;;;22.20;13.68;;;3.40;99.90;;;;;;5028515;28;20463;-66
2023/02/07 11:10:22;;;;;;;24.25;14.10;;;3.70;99.90;;;;;;5027570;28;20049;-66
2023/02/07 11:12:54;;;;;;;20.88;13.50;;;3.80;99.90;;;;;;5030073;28;20484;-66
2023/02/07 11:15:27;;;;;;;20.17;12.63;;;4.00;99.90;;;;;;5029087;28;20030;-66
2023/02/07 11:17:56;;;;;;;22.92;13.15;;;4.40;99.90;;;;;;5030501;28;20069;-66
2023/02/07 11:20:28;;;;;;;24.75;12.68;;;4.50;99.90;;;;;;5029068;28;20072;-66
2023/02/07 11:22:57;;;;;;;21.33;13.73;;;4.70;99.90;;;;;;5048867;28;20079;-66
2023/02/07 11:25:31;;;;;;;19.05;11.77;;;4.80;99.90;;;;;;5048776;28;20488;-66
2023/02/07 11:27:58;;;;;;;22.40;13.07;;;5.00;99.90;;;;;;5047675;28;20415;-66
2023/02/07 11:30:28;;;;;;;20.25;13.90;;;5.30;99.90;;;;;;5033802;28;20420;-67
2023/02/07 11:33:03;;;;;;;20.30;12.93;;;5.60;99.90;;;;;;5029094;28;20045;-66
2023/02/07 11:35:31;;;;;;;20.75;13.40;;;5.70;99.90;;;;;;5028651;28;20480;-66
2023/02/07 11:38:04;;;;;;;24.92;13.60;;;5.80;99.90;;;;;;5029414;28;20475;-66
2023/02/07 11:40:41;;;;;;;22.30;14.85;;;6.10;99.90;;;;;;5033111;28;20042;-67
2023/02/07 11:43:08;;;;;;;19.70;12.82;;;6.30;99.90;;;;;;5033168;28;20045;-65
2023/02/07 11:45:40;;;;;;;17.92;12.60;;;6.60;99.90;;;;;;5033160;28;20128;-66
2023/02/07 11:48:20;;;;;;;20.60;12.32;;;6.90;99.90;;;;;;5032122;28;20048;-67
2023/02/07 11:50:52;;;;;;;19.83;13.10;;;7.30;99.90;;;;;;5050725;28;20041;-67
2023/02/07 11:53:46;;;;;;;19.13;13.02;;;7.60;99.90;;;;;;5052977;28;20120;-67
2023/02/07 11:56:23;;;;;;;22.30;12.90;;;7.60;99.90;;;;;;5034669;28;20065;-66
2023/02/07 11:58:53;;;;;;;21.50;12.68;;;7.90;99.90;;;;;;5032679;28;20149;-66
2023/02/07 12:01:28;;;;;;;18.02;11.52;;;8.30;99.90;;;;;;5048604;28;20112;-67
2023/02/07 12:03:59;;;;;;;18.50;11.98;;;8.60;99.90;;;;;;5031359;28;20060;-67
2023/02/07 12:06:41;;;;;;;18.67;12.40;;;8.70;99.90;;;;;;5032022;28;20412;-67
2023/02/07 12:09:35;;;;;;;21.33;12.68;;;9.00;99.90;;;;;;5033221;28;20319;-68
2023/02/07 12:12:08;;;;;;;19.70;13.10;;;9.30;98.00;;;;;;5033522;28;20468;-67
2023/02/07 12:14:49;;;;;;;22.08;12.43;;;9.20;99.80;;;;;;5031145;28;20049;-67
2023/02/07 12:17:23;;;;;;;16.85;12.27;;;9.20;95.70;;;;;;5032933;28;20048;-67
2023/02/07 12:20:04;;;;;;;17.92;12.07;;;9.30;97.50;;;;;;5037271;28;20048;-66
2023/02/07 12:22:56;;;;;;;17.63;11.65;;;9.80;96.70;;;;;;5052233;28;20037;-66
2023/02/07 12:25:50;;;;;;;21.63;11.75;;;9.80;98.10;;;;;;5050599;28;20041;-67
2023/02/07 12:28:30;;;;;;;20.55;12.70;;;10.00;94.80;;;;;;5052565;28;20128;-66
2023/02/07 12:31:01;;;;;;;18.15;12.05;;;10.20;95.70;;;;;;5039741;28;20053;-68
2023/02/07 12:33:35;;;;;;;24.15;12.90;;;10.80;93.90;;;;;;5031572;28;20118;-67
2023/02/07 12:36:18;;;;;;;18.48;12.30;;;11.10;94.70;;;;;;5056412;28;20483;-67
2023/02/07 12:38:59;;;;;;;19.58;12.30;;;12.10;92.10;;;;;;5071989;28;20044;-67
2023/02/07 12:41:57;;;;;;;17.30;11.80;;;12.70;90.80;;;;;;5041043;28;20140;-67
2023/02/07 12:44:46;;;;;;;17.13;12.27;;;12.70;90.20;;;;;;5032726;28;20519;-70
2023/02/07 12:47:40;;;;;;;16.27;12.40;;;13.20;85.80;;;;;;5033040;28;20040;-69
2023/02/07 12:50:26;;;;;;;14.98;12.15;;;13.80;87.20;;;;;;5046070;28;20053;-68
2023/02/07 12:53:28;;;;;;;15.40;11.77;;;14.10;84.30;;;;;;5047595;28;20143;-68